Terminal Aerodrome Forecast
Issued by NWS

Home | Current Version | Previous Version | Text Only | Print | Product List | Glossary On
Versions: 1 2 3 4 5 6 7 8 9 10 11 12 13 14 15 16 17 18 19 20 21 22 23 24 25 26 27 28 29 30 31 32 33 34
000
FTUS46 KOTX 260530
TAFPUW
TAF
KPUW 260530Z 2606/2706 VRB02KT P6SM BKN200
     FM261200 10006KT P6SM SCT030 BKN200
     FM262000 13009KT P6SM BKN080 OVC120
     FM262300 16006KT P6SM -RA BKN050 OVC100
     FM270100 16005KT P6SM -RA OVC025=

USA.gov is the U.S. government's official web portal to all federal, state and local government web resources and services.